createdAt,value
2019-03-20T00:01:12.811Z,1.85
2019-03-20T00:03:40.244Z,2.27
2019-03-20T00:06:07.621Z,2.27
2019-03-20T00:08:34.917Z,2.55
2019-03-20T00:11:02.293Z,2.25
2019-03-20T00:13:29.728Z,1.90
2019-03-20T00:15:57.134Z,1.50
2019-03-20T00:18:24.451Z,2.00
2019-03-20T00:20:51.757Z,2.70
2019-03-20T00:23:19.163Z,2.25
2019-03-20T00:25:46.557Z,2.05
2019-03-20T00:28:13.862Z,2.20
2019-03-20T00:30:41.178Z,2.05
2019-03-20T00:33:08.522Z,2.30
2019-03-20T00:35:35.923Z,1.90
2019-03-20T00:38:03.250Z,2.17
2019-03-20T00:40:30.694Z,2.37
2019-03-20T00:42:58.320Z,1.87
2019-03-20T00:45:25.518Z,1.22
2019-03-20T00:47:52.814Z,1.70
2019-03-20T00:50:20.233Z,1.70
2019-03-20T00:52:47.628Z,1.30
2019-03-20T00:55:15.700Z,2.08
2019-03-20T00:57:43.040Z,1.72
2019-03-20T01:00:13.268Z,1.77
2019-03-20T01:02:40.690Z,2.55
2019-03-20T01:05:12.425Z,1.92
2019-03-20T01:07:37.805Z,1.65
2019-03-20T01:10:06.664Z,1.90
2019-03-20T01:12:33.973Z,2.27
2019-03-20T01:15:01.285Z,1.85
2019-03-20T01:17:28.606Z,1.70
2019-03-20T01:19:56.024Z,2.10
2019-03-20T01:22:23.440Z,2.52
2019-03-20T01:24:50.873Z,2.60
2019-03-20T01:27:18.175Z,2.10
2019-03-20T01:29:45.574Z,1.95
2019-03-20T01:32:12.888Z,1.45
2019-03-20T01:34:40.238Z,2.22
2019-03-20T01:37:07.639Z,1.60
2019-03-20T01:39:35.053Z,1.57
2019-03-20T01:42:02.460Z,2.15
2019-03-20T01:44:29.850Z,2.27
2019-03-20T01:46:57.231Z,2.00
2019-03-20T01:49:24.663Z,2.33
2019-03-20T01:51:52.065Z,1.87
2019-03-20T01:54:19.373Z,1.82
2019-03-20T01:56:46.906Z,1.47
2019-03-20T01:59:14.185Z,2.10
2019-03-20T02:01:41.845Z,2.45
2019-03-20T02:04:09.205Z,2.35
2019-03-20T02:06:36.615Z,2.12
2019-03-20T02:09:06.023Z,2.33
2019-03-20T02:11:33.613Z,1.55
2019-03-20T02:14:00.876Z,1.82
2019-03-20T02:16:28.191Z,2.52
2019-03-20T02:18:55.576Z,2.20
2019-03-20T02:21:22.967Z,1.65
2019-03-20T02:23:50.276Z,1.80
2019-03-20T02:26:17.569Z,1.70
2019-03-20T02:28:44.884Z,1.55
2019-03-20T02:31:12.227Z,1.98
2019-03-20T02:33:39.619Z,1.95
2019-03-20T02:36:07.317Z,2.17
2019-03-20T02:38:34.715Z,1.85
2019-03-20T02:41:02.112Z,1.35
2019-03-20T02:43:29.425Z,2.00
2019-03-20T02:45:56.873Z,2.60
2019-03-20T02:48:24.239Z,1.82
2019-03-20T02:50:51.557Z,2.55
2019-03-20T02:53:18.967Z,2.52
2019-03-20T02:55:46.355Z,2.15
2019-03-20T02:58:14.055Z,2.77
2019-03-20T03:00:41.371Z,1.85
2019-03-20T03:03:08.775Z,2.10
2019-03-20T03:05:36.210Z,2.25
2019-03-20T03:08:03.524Z,2.45
2019-03-20T03:10:30.917Z,2.30
2019-03-20T03:12:58.314Z,2.50
2019-03-20T03:15:25.687Z,2.15
2019-03-20T03:17:53.126Z,1.77
2019-03-20T03:20:20.514Z,2.05
2019-03-20T03:22:47.843Z,2.70
2019-03-20T03:25:15.262Z,2.00
2019-03-20T03:27:42.684Z,1.80
2019-03-20T03:30:10.488Z,1.72
2019-03-20T03:32:37.920Z,1.95
2019-03-20T03:35:05.505Z,1.95
2019-03-20T03:37:32.916Z,1.90
2019-03-20T03:40:00.601Z,2.22
2019-03-20T03:42:28.165Z,1.25
2019-03-20T03:44:55.571Z,2.20
2019-03-20T03:47:22.890Z,1.90
2019-03-20T03:49:50.294Z,2.50
2019-03-20T03:52:17.718Z,2.80
2019-03-20T03:54:45.199Z,2.10
2019-03-20T03:57:12.614Z,2.50
2019-03-20T03:59:40.060Z,2.40
2019-03-20T04:02:07.489Z,1.80
2019-03-20T04:04:34.769Z,1.10
2019-03-20T04:07:02.222Z,1.67
2019-03-20T04:09:29.524Z,2.15
2019-03-20T04:11:56.925Z,2.25
2019-03-20T04:14:24.365Z,1.82
2019-03-20T04:16:52.082Z,1.45
2019-03-20T04:19:19.349Z,2.00
2019-03-20T04:21:46.667Z,1.92
2019-03-20T04:24:14.140Z,1.55
2019-03-20T04:26:41.528Z,1.90
2019-03-20T04:29:08.965Z,1.85
2019-03-20T04:31:36.348Z,2.58
2019-03-20T04:34:03.779Z,2.65
2019-03-20T04:36:31.234Z,2.30
2019-03-20T04:38:58.602Z,1.60
2019-03-20T04:41:26.030Z,2.30
2019-03-20T04:43:53.422Z,2.27
2019-03-20T04:46:20.770Z,2.67
2019-03-20T04:48:48.213Z,2.08
2019-03-20T04:51:15.555Z,1.90
2019-03-20T04:53:43.010Z,2.00
2019-03-20T04:56:10.513Z,2.25
2019-03-20T04:58:37.925Z,1.70
2019-03-20T05:01:05.461Z,1.98
2019-03-20T05:03:32.790Z,1.52
2019-03-20T05:06:00.300Z,2.00
2019-03-20T05:08:27.731Z,1.75
2019-03-20T05:10:55.220Z,1.50
2019-03-20T05:13:22.544Z,1.55
2019-03-20T05:15:50.040Z,1.72
2019-03-20T05:18:17.360Z,1.85
2019-03-20T05:20:44.852Z,1.90
2019-03-20T05:23:12.276Z,1.70
2019-03-20T05:25:39.779Z,1.65
2019-03-20T05:28:07.183Z,1.25
2019-03-20T05:30:34.487Z,1.70
2019-03-20T05:33:01.910Z,1.57
2019-03-20T05:35:29.308Z,1.00
2019-03-20T05:37:56.632Z,1.95
2019-03-20T05:40:23.973Z,1.47
2019-03-20T05:42:51.290Z,2.02
2019-03-20T05:45:18.704Z,1.25
2019-03-20T05:47:46.150Z,1.75
2019-03-20T05:50:13.819Z,2.05
2019-03-20T05:52:41.156Z,1.47
2019-03-20T05:55:08.693Z,1.65
2019-03-20T05:57:36.030Z,2.12
2019-03-20T06:00:04.312Z,2.00
2019-03-20T06:02:31.672Z,1.45
2019-03-20T06:04:59.005Z,1.40
2019-03-20T06:07:26.440Z,1.80
2019-03-20T06:09:53.925Z,1.57
2019-03-20T06:12:21.323Z,1.90
2019-03-20T06:14:48.671Z,1.85
2019-03-20T06:17:16.475Z,1.75
2019-03-20T06:19:43.892Z,2.85
2019-03-20T06:22:11.231Z,2.10
2019-03-20T06:24:38.526Z,2.40
2019-03-20T06:27:06.173Z,1.50
2019-03-20T06:29:33.578Z,2.30
2019-03-20T06:32:01.436Z,2.17
2019-03-20T06:34:28.872Z,1.45
2019-03-20T06:36:56.336Z,2.50
2019-03-20T06:39:24.054Z,2.72
2019-03-20T06:41:51.394Z,2.45
2019-03-20T06:44:18.765Z,1.85
2019-03-20T06:46:46.114Z,1.92
2019-03-20T06:49:13.458Z,2.55
2019-03-20T06:51:40.796Z,3.35
2019-03-20T06:54:08.268Z,3.17
2019-03-20T06:56:35.664Z,2.70
2019-03-20T06:59:46.886Z,2.33
2019-03-20T07:02:14.308Z,2.45
2019-03-20T07:05:19.030Z,2.50
2019-03-20T07:07:46.458Z,2.00
2019-03-20T07:10:21.581Z,2.67
2019-03-20T07:12:49.216Z,3.22
2019-03-20T07:15:16.421Z,2.72
2019-03-20T07:17:43.755Z,2.62
2019-03-20T07:20:11.184Z,3.30
2019-03-20T07:22:38.499Z,2.17
2019-03-20T07:25:06.133Z,2.00
2019-03-20T07:27:33.457Z,2.58
2019-03-20T07:30:00.857Z,2.10
2019-03-20T07:32:30.078Z,2.75
2019-03-20T07:34:57.515Z,2.30
2019-03-20T07:37:24.970Z,3.55
2019-03-20T07:39:52.325Z,2.67
2019-03-20T07:42:19.739Z,2.80
2019-03-20T07:44:47.161Z,2.05
2019-03-20T07:47:14.462Z,2.45
2019-03-20T07:49:41.774Z,3.05
2019-03-20T07:52:09.447Z,1.77
2019-03-20T07:54:36.926Z,2.52
2019-03-20T07:57:04.394Z,3.10
2019-03-20T07:59:31.712Z,2.55
2019-03-20T08:01:59.146Z,2.98
2019-03-20T08:04:26.562Z,2.67
2019-03-20T08:06:53.979Z,2.08
2019-03-20T08:09:21.426Z,3.05
2019-03-20T08:11:48.802Z,1.82
2019-03-20T08:14:16.114Z,1.80
2019-03-20T08:16:43.377Z,1.27
2019-03-20T08:19:10.794Z,1.65
2019-03-20T08:21:38.212Z,2.42
2019-03-20T08:24:05.529Z,1.65
2019-03-20T08:26:32.854Z,2.02
2019-03-20T08:29:00.150Z,2.15
2019-03-20T08:31:27.518Z,2.08
2019-03-20T08:33:54.946Z,2.40
2019-03-20T08:36:22.305Z,1.57
2019-03-20T08:38:49.735Z,2.50
2019-03-20T08:41:17.185Z,1.90
2019-03-20T08:43:45.686Z,1.98
2019-03-20T08:46:13.201Z,2.50
2019-03-20T08:48:40.500Z,2.67
2019-03-20T08:51:07.837Z,1.90
2019-03-20T08:53:35.533Z,2.40
2019-03-20T08:56:02.958Z,1.90
2019-03-20T08:58:30.394Z,1.67
2019-03-20T09:00:57.870Z,1.85
2019-03-20T09:03:25.295Z,1.82
2019-03-20T09:05:52.692Z,1.65
2019-03-20T09:08:28.914Z,1.40
2019-03-20T09:10:49.276Z,1.42
2019-03-20T09:13:16.569Z,1.80
2019-03-20T09:15:43.971Z,2.45
2019-03-20T09:18:11.411Z,2.15
2019-03-20T09:20:38.813Z,1.55
2019-03-20T09:23:06.240Z,1.90
2019-03-20T09:25:33.645Z,2.02
2019-03-20T09:28:00.964Z,1.87
2019-03-20T09:30:28.310Z,1.85
2019-03-20T09:32:55.725Z,1.22
2019-03-20T09:35:23.083Z,1.85
2019-03-20T09:37:52.413Z,1.42
2019-03-20T09:40:19.688Z,1.85
2019-03-20T09:42:47.136Z,1.72
2019-03-20T09:45:15.051Z,1.60
2019-03-20T09:47:42.536Z,1.50
2019-03-20T09:50:11.621Z,1.62
2019-03-20T09:52:39.005Z,1.80
2019-03-20T09:55:07.014Z,1.80
2019-03-20T09:57:34.485Z,1.40
2019-03-20T10:00:01.929Z,1.20
2019-03-20T10:02:29.787Z,1.83
2019-03-20T10:04:57.202Z,1.73
2019-03-20T10:07:24.632Z,1.53
2019-03-20T10:09:51.927Z,1.90
2019-03-20T10:12:19.247Z,1.77
2019-03-20T10:14:46.730Z,0.90
2019-03-20T10:17:14.140Z,1.40
2019-03-20T10:19:41.486Z,1.27
2019-03-20T10:22:08.788Z,1.20
2019-03-20T10:24:36.200Z,1.63
2019-03-20T10:27:03.600Z,1.27
2019-03-20T10:29:31.054Z,1.33
2019-03-20T10:31:58.460Z,1.20
2019-03-20T10:34:25.841Z,1.10
2019-03-20T10:36:53.223Z,1.27
2019-03-20T10:39:20.645Z,1.30
2019-03-20T10:41:48.358Z,1.40
2019-03-20T10:44:15.700Z,1.30
2019-03-20T10:46:43.109Z,1.37
2019-03-20T10:49:10.444Z,1.53
2019-03-20T10:51:37.834Z,1.30
2019-03-20T10:54:05.174Z,1.20
2019-03-20T10:56:32.634Z,1.50
2019-03-20T10:59:00.369Z,1.60
2019-03-20T11:01:27.802Z,1.40
2019-03-20T11:03:55.207Z,1.40
2019-03-20T11:06:22.600Z,1.60
2019-03-20T11:08:50.034Z,1.80
2019-03-20T11:11:26.491Z,1.60
2019-03-20T11:13:46.750Z,1.50
2019-03-20T11:16:14.510Z,1.70
2019-03-20T11:18:42.530Z,1.73
2019-03-20T11:21:09.857Z,1.77
2019-03-20T11:23:37.295Z,1.67
2019-03-20T11:26:04.662Z,1.70
2019-03-20T11:28:32.083Z,1.40
2019-03-20T11:30:59.463Z,1.30
2019-03-20T11:33:26.899Z,1.73
2019-03-20T11:35:54.323Z,1.40
2019-03-20T11:38:21.828Z,1.40
2019-03-20T11:40:49.237Z,1.50
2019-03-20T11:43:16.544Z,1.10
2019-03-20T11:45:43.860Z,1.70
2019-03-20T11:48:11.326Z,1.73
2019-03-20T11:50:38.768Z,1.07
2019-03-20T11:53:06.153Z,1.37
2019-03-20T11:55:33.507Z,0.90
2019-03-20T11:58:00.931Z,1.43
2019-03-20T12:00:28.493Z,1.50
2019-03-20T12:02:56.056Z,1.33
2019-03-20T12:05:23.583Z,1.60
2019-03-20T12:07:50.977Z,1.40
2019-03-20T12:10:19.692Z,1.60
2019-03-20T12:12:47.119Z,1.30
2019-03-20T12:15:14.785Z,1.10
2019-03-20T12:17:42.194Z,1.30
2019-03-20T12:20:12.343Z,1.37
2019-03-20T12:22:39.824Z,1.20
2019-03-20T12:25:09.281Z,1.00
2019-03-20T12:27:36.714Z,1.70
2019-03-20T12:30:06.879Z,1.50
2019-03-20T12:32:34.297Z,1.33
2019-03-20T12:35:01.658Z,1.30
2019-03-20T12:37:29.130Z,1.37
2019-03-20T12:39:56.541Z,1.77
2019-03-20T12:42:23.929Z,1.80
2019-03-20T12:44:51.369Z,1.47
2019-03-20T12:47:18.800Z,1.00
2019-03-20T12:49:46.228Z,1.90
2019-03-20T12:52:13.642Z,1.30
2019-03-20T12:54:41.031Z,2.10
2019-03-20T12:57:08.769Z,1.53
2019-03-20T12:59:36.112Z,1.00
2019-03-20T13:02:03.510Z,1.30
2019-03-20T13:04:31.001Z,1.60
2019-03-20T13:06:58.430Z,1.87
2019-03-20T13:09:26.154Z,1.43
2019-03-20T13:11:53.605Z,1.77
2019-03-20T13:14:21.136Z,1.30
2019-03-20T13:16:48.557Z,1.33
2019-03-20T13:19:15.931Z,1.50
2019-03-20T13:21:43.350Z,1.50
2019-03-20T13:24:10.746Z,1.80
2019-03-20T13:26:38.143Z,1.13
2019-03-20T13:29:05.556Z,1.47
2019-03-20T13:31:32.990Z,1.93
2019-03-20T13:34:00.827Z,1.10
2019-03-20T13:36:28.248Z,1.23
2019-03-20T13:38:56.540Z,1.30
2019-03-20T13:41:24.022Z,1.30
2019-03-20T13:43:51.455Z,1.27
2019-03-20T13:46:18.887Z,1.60
2019-03-20T13:48:46.322Z,1.60
2019-03-20T13:51:13.750Z,1.30
2019-03-20T13:53:41.076Z,1.17
2019-03-20T13:56:08.495Z,1.40
2019-03-20T13:58:35.815Z,1.40
2019-03-20T14:01:03.270Z,1.67
2019-03-20T14:03:30.689Z,1.30
2019-03-20T14:05:58.046Z,1.43
2019-03-20T14:08:25.798Z,1.17
2019-03-20T14:10:53.224Z,1.30
2019-03-20T14:13:20.590Z,1.20
2019-03-20T14:15:48.010Z,1.70
2019-03-20T14:18:15.435Z,1.27
2019-03-20T14:20:42.907Z,1.33
2019-03-20T14:23:10.333Z,1.50
2019-03-20T14:25:37.762Z,1.40
2019-03-20T14:28:05.285Z,1.37
2019-03-20T14:30:32.838Z,1.37
2019-03-20T14:33:00.271Z,1.40
2019-03-20T14:35:28.127Z,2.23
2019-03-20T14:37:55.573Z,1.73
2019-03-20T14:40:35.485Z,1.60
2019-03-20T14:42:56.642Z,1.33
2019-03-20T14:45:24.107Z,1.57
2019-03-20T14:47:51.537Z,1.40
2019-03-20T14:50:20.674Z,1.10
2019-03-20T14:52:48.145Z,1.70
2019-03-20T14:55:15.515Z,1.13
2019-03-20T14:57:42.938Z,1.33
2019-03-20T15:00:13.345Z,1.20
2019-03-20T15:02:41.082Z,1.70
2019-03-20T15:05:08.512Z,1.10
2019-03-20T15:07:35.947Z,1.40
2019-03-20T15:10:03.966Z,1.53
2019-03-20T15:12:31.390Z,1.70
2019-03-20T15:14:58.871Z,1.47
2019-03-20T15:17:26.654Z,1.20
2019-03-20T15:19:54.067Z,1.17
2019-03-20T15:22:21.543Z,0.97
2019-03-20T15:24:49.039Z,1.20
2019-03-20T15:27:16.429Z,1.03
2019-03-20T15:29:43.846Z,1.00
2019-03-20T15:32:11.291Z,1.13
2019-03-20T15:34:38.643Z,1.27
2019-03-20T15:37:06.102Z,1.63
2019-03-20T15:39:33.422Z,1.20
2019-03-20T15:42:00.777Z,1.30
2019-03-20T15:44:28.604Z,1.40
2019-03-20T15:46:56.038Z,1.47
2019-03-20T15:49:23.882Z,1.20
2019-03-20T15:51:51.287Z,1.77
2019-03-20T15:54:18.916Z,1.27
2019-03-20T15:56:46.361Z,1.20
2019-03-20T15:59:13.788Z,1.17
2019-03-20T16:01:41.221Z,1.37
2019-03-20T16:04:08.685Z,1.47
2019-03-20T16:06:36.184Z,1.43
2019-03-20T16:09:06.830Z,1.33
2019-03-20T16:11:34.269Z,1.17
2019-03-20T16:14:01.793Z,0.97
2019-03-20T16:16:29.270Z,1.60
2019-03-20T16:18:56.780Z,1.00
2019-03-20T16:21:24.231Z,1.10
2019-03-20T16:23:51.696Z,0.98
2019-03-20T16:26:19.071Z,1.20
2019-03-20T16:28:46.551Z,1.10
2019-03-20T16:31:14.059Z,1.32
2019-03-20T16:33:41.830Z,0.70
2019-03-20T16:36:09.326Z,0.95
2019-03-20T16:38:36.881Z,1.12
2019-03-20T16:41:04.350Z,0.82
2019-03-20T16:43:31.805Z,1.30
2019-03-20T16:45:59.249Z,1.20
2019-03-20T16:48:26.624Z,0.65
2019-03-20T16:50:54.065Z,3.50
2019-03-20T16:53:21.536Z,2.12
2019-03-20T16:55:49.405Z,1.70
2019-03-20T16:58:16.790Z,3.40
2019-03-20T17:00:44.275Z,1.87
2019-03-20T17:03:11.823Z,1.30
2019-03-20T17:05:39.655Z,0.90
2019-03-20T17:08:07.172Z,1.05
2019-03-20T17:10:37.310Z,1.20
2019-03-20T17:13:04.889Z,1.00
2019-03-20T17:15:32.414Z,1.05
2019-03-20T17:17:59.853Z,1.40
2019-03-20T17:20:27.487Z,0.98
2019-03-20T17:22:54.941Z,1.00
2019-03-20T17:25:22.445Z,1.40
2019-03-20T17:27:49.856Z,1.25
2019-03-20T17:30:25.460Z,1.20
2019-03-20T17:32:52.934Z,0.90
2019-03-20T17:35:20.484Z,1.25
2019-03-20T17:37:48.025Z,1.10
2019-03-20T17:40:16.268Z,1.32
2019-03-20T17:42:43.744Z,1.12
2019-03-20T17:45:12.248Z,1.52
2019-03-20T17:47:39.755Z,0.90
2019-03-20T17:50:11.081Z,1.25
2019-03-20T17:52:38.494Z,1.20
2019-03-20T17:55:06.099Z,1.30
2019-03-20T17:57:33.978Z,1.57
2019-03-20T18:00:02.111Z,1.55
2019-03-20T18:02:29.681Z,1.40
2019-03-20T18:04:57.181Z,1.07
2019-03-20T18:07:24.973Z,1.27
2019-03-20T18:09:52.403Z,1.72
2019-03-20T18:12:20.241Z,1.47
2019-03-20T18:14:47.794Z,1.30
2019-03-20T18:17:15.331Z,1.15
2019-03-20T18:19:42.804Z,1.27
2019-03-20T18:22:10.369Z,1.22
2019-03-20T18:24:37.959Z,1.67
2019-03-20T18:27:05.438Z,1.80
2019-03-20T18:29:33.006Z,1.82
2019-03-20T18:32:00.515Z,1.40
2019-03-20T18:34:28.021Z,3.87
2019-03-20T18:36:55.926Z,3.45
2019-03-20T18:39:23.539Z,2.62
2019-03-20T18:41:57.631Z,4.10
2019-03-20T18:44:20.434Z,2.62
2019-03-20T18:46:48.027Z,3.20
2019-03-20T18:49:16.027Z,2.05
2019-03-20T18:51:43.612Z,1.37
2019-03-20T18:54:11.137Z,1.10
2019-03-20T18:56:38.658Z,1.20
2019-03-20T18:59:06.518Z,1.32
2019-03-20T19:01:34.021Z,1.70
2019-03-20T19:04:01.642Z,2.98
2019-03-20T19:06:29.316Z,1.50
2019-03-20T19:08:57.221Z,1.20
2019-03-20T19:11:24.873Z,1.32
2019-03-20T19:13:52.815Z,1.80
2019-03-20T19:16:20.498Z,1.50
2019-03-20T19:18:48.105Z,1.30
2019-03-20T19:21:15.791Z,1.47
2019-03-20T19:23:43.453Z,1.50
2019-03-20T19:26:11.439Z,1.50
2019-03-20T19:28:39.592Z,1.75
2019-03-20T19:31:07.354Z,1.10
2019-03-20T19:33:35.370Z,1.70
2019-03-20T19:36:03.898Z,1.62
2019-03-20T19:38:35.227Z,1.70
2019-03-20T19:41:01.042Z,1.90
2019-03-20T19:43:28.593Z,1.50
2019-03-20T19:45:56.259Z,1.72
2019-03-20T19:48:23.977Z,1.90
2019-03-20T19:50:52.481Z,1.45
2019-03-20T19:53:20.147Z,1.67
2019-03-20T19:55:48.058Z,1.40
2019-03-20T19:58:15.685Z,1.30
2019-03-20T20:00:43.476Z,1.57
2019-03-20T20:03:11.133Z,1.75
2019-03-20T20:05:38.778Z,1.20
2019-03-20T20:08:06.459Z,1.47
2019-03-20T20:10:34.139Z,1.80
2019-03-20T20:13:01.805Z,1.80
2019-03-20T20:15:29.394Z,1.25
2019-03-20T20:17:57.539Z,1.27
2019-03-20T20:20:25.239Z,2.65
2019-03-20T20:22:52.984Z,5.50
2019-03-20T20:25:20.546Z,7.47
2019-03-20T20:27:48.173Z,5.83
2019-03-20T20:30:16.241Z,3.00
2019-03-20T20:32:44.056Z,2.52
2019-03-20T20:35:11.961Z,2.40
2019-03-20T20:37:39.854Z,2.35
2019-03-20T20:40:09.035Z,2.15
2019-03-20T20:42:42.887Z,1.87
2019-03-20T20:45:06.674Z,1.77
2019-03-20T20:47:34.471Z,1.92
2019-03-20T20:50:02.115Z,1.40
2019-03-20T20:52:29.620Z,2.12
2019-03-20T20:54:57.223Z,1.70
2019-03-20T20:57:24.801Z,2.00
2019-03-20T20:59:52.291Z,1.25
2019-03-20T21:02:19.951Z,1.40
2019-03-20T21:04:47.606Z,1.60
2019-03-20T21:07:15.156Z,2.12
2019-03-20T21:09:42.621Z,2.15
2019-03-20T21:12:10.512Z,1.75
2019-03-20T21:14:38.320Z,1.60
2019-03-20T21:17:09.860Z,2.80
2019-03-20T21:19:47.574Z,3.65
2019-03-20T21:22:55.278Z,3.83
2019-03-20T21:25:23.264Z,3.45
2019-03-20T21:28:37.099Z,3.85
2019-03-20T21:31:27.134Z,3.67
2019-03-20T21:34:34.600Z,2.87
2019-03-20T21:37:40.010Z,2.25
2019-03-20T21:40:11.634Z,2.62
2019-03-20T21:43:13.999Z,2.33
2019-03-20T21:46:17.410Z,2.02
2019-03-20T21:48:45.364Z,2.10
2019-03-20T21:51:17.259Z,2.65
2019-03-20T21:54:10.536Z,3.12
2019-03-20T21:56:41.648Z,2.37
2019-03-20T21:59:21.896Z,3.77
2019-03-20T22:02:36.750Z,2.80
2019-03-20T22:05:04.858Z,4.30
2019-03-20T22:07:32.796Z,4.45
2019-03-20T22:10:37.778Z,4.03
2019-03-20T22:13:22.011Z,3.15
2019-03-20T22:16:34.699Z,2.62
2019-03-20T22:19:43.940Z,2.87
2019-03-20T22:23:07.942Z,2.65
2019-03-20T22:26:08.936Z,2.55
2019-03-20T22:29:24.296Z,4.35
2019-03-20T22:32:42.586Z,5.40
2019-03-20T22:35:46.036Z,4.40
2019-03-20T22:38:54.388Z,4.60
2019-03-20T22:41:47.660Z,3.20
2019-03-20T22:44:15.605Z,3.02
2019-03-20T22:47:36.045Z,2.70
2019-03-20T22:50:40.529Z,3.30
2019-03-20T22:53:47.339Z,2.45
2019-03-20T22:56:43.529Z,2.05
2019-03-20T22:59:11.523Z,2.60
2019-03-20T23:01:51.072Z,2.02
2019-03-20T23:04:31.495Z,1.95
2019-03-20T23:06:59.483Z,2.58
2019-03-20T23:09:27.438Z,2.67
2019-03-20T23:11:56.408Z,2.50
2019-03-20T23:14:24.430Z,2.30
2019-03-20T23:16:52.474Z,2.65
2019-03-20T23:19:20.471Z,2.62
2019-03-20T23:21:48.410Z,2.50
2019-03-20T23:24:16.278Z,2.00
2019-03-20T23:26:44.257Z,2.35
2019-03-20T23:29:12.231Z,2.83
2019-03-20T23:31:40.215Z,3.80
2019-03-20T23:34:08.056Z,2.72
2019-03-20T23:36:36.040Z,2.47
2019-03-20T23:39:06.624Z,2.47
2019-03-20T23:41:34.617Z,2.33
2019-03-20T23:44:02.479Z,2.40
2019-03-20T23:46:30.345Z,2.22
2019-03-20T23:49:02.139Z,2.55
2019-03-20T23:51:30.190Z,2.05
2019-03-20T23:53:58.153Z,3.00
2019-03-20T23:56:27.952Z,2.20
2019-03-20T23:58:55.921Z,1.92
